createdAt,value
2023-04-17T00:00:55.637Z,67.94
2023-04-17T00:01:55.712Z,68.96
2023-04-17T00:02:55.870Z,69.37
2023-04-17T00:03:55.674Z,69.68
2023-04-17T00:04:55.648Z,69.78
2023-04-17T00:05:55.543Z,70.29
2023-04-17T00:06:55.534Z,70.60
2023-04-17T00:07:55.518Z,71.11
2023-04-17T00:08:55.523Z,72.34
2023-04-17T00:09:55.497Z,73.06
2023-04-17T00:11:04.581Z,74.29
2023-04-17T00:11:56.502Z,74.60
2023-04-17T00:12:55.465Z,74.49
2023-04-17T00:13:55.461Z,74.70
2023-04-17T00:14:55.444Z,74.90
2023-04-17T00:15:55.471Z,75.21
2023-04-17T00:16:55.472Z,74.39
2023-04-17T00:17:55.419Z,74.19
2023-04-17T00:18:55.417Z,74.39
2023-04-17T00:19:55.384Z,73.98
2023-04-17T00:20:55.379Z,73.68
2023-04-17T00:21:55.363Z,73.98
2023-04-17T00:22:55.351Z,73.57
2023-04-17T00:23:55.338Z,73.57
2023-04-17T00:24:55.332Z,74.29
2023-04-17T00:25:55.318Z,74.70
2023-04-17T00:26:55.334Z,74.60
2023-04-17T00:27:55.298Z,73.98
2023-04-17T00:28:55.285Z,73.36
2023-04-17T00:29:55.278Z,73.16
2023-04-17T00:30:55.264Z,73.27
2023-04-17T00:31:55.318Z,73.36
2023-04-17T00:32:55.261Z,72.65
2023-04-17T00:33:55.233Z,72.24
2023-04-17T00:34:55.883Z,72.03
2023-04-17T00:35:55.213Z,72.44
2023-04-17T00:36:55.197Z,70.91
2023-04-17T00:37:55.191Z,70.09
2023-04-17T00:38:55.176Z,69.71
2023-04-17T00:39:55.168Z,69.51
2023-04-17T00:40:55.186Z,69.92
2023-04-17T00:41:55.147Z,68.89
2023-04-17T00:42:55.156Z,68.07
2023-04-17T00:43:55.120Z,68.17
2023-04-17T00:44:55.119Z,68.38
2023-04-17T00:45:55.118Z,68.89
2023-04-17T00:46:55.087Z,68.99
2023-04-17T00:47:55.096Z,67.56
2023-04-17T00:48:55.067Z,67.66
2023-04-17T00:49:55.055Z,67.05
2023-04-17T00:50:55.042Z,67.66
2023-04-17T00:51:55.031Z,67.86
2023-04-17T00:52:55.024Z,68.17
2023-04-17T00:53:55.009Z,68.59
2023-04-17T00:54:54.997Z,68.27
2023-04-17T00:55:54.990Z,67.97
2023-04-17T00:56:54.975Z,66.63
2023-04-17T00:57:54.969Z,66.22
2023-04-17T00:58:54.981Z,66.22
2023-04-17T00:59:54.941Z,65.41
2023-04-17T01:00:54.968Z,65.41
2023-04-17T01:01:55.050Z,65.61
2023-04-17T01:02:55.013Z,65.20
2023-04-17T01:03:55.378Z,64.59
2023-04-17T01:04:54.888Z,65.20
2023-04-17T01:05:54.873Z,64.07
2023-04-17T01:06:54.868Z,63.66
2023-04-17T01:07:54.860Z,64.00
2023-04-17T01:08:54.840Z,63.59
2023-04-17T01:09:54.828Z,63.07
2023-04-17T01:10:54.823Z,61.95
2023-04-17T01:11:54.807Z,61.02
2023-04-17T01:12:54.794Z,61.13
2023-04-17T01:13:54.784Z,59.59
2023-04-17T01:14:54.815Z,59.38
2023-04-17T01:15:54.763Z,59.59
2023-04-17T01:16:54.776Z,58.97
2023-04-17T01:17:54.775Z,58.87
2023-04-17T01:18:54.728Z,58.46
2023-04-17T01:19:54.718Z,58.05
2023-04-17T01:20:54.700Z,58.05
2023-04-17T01:21:54.693Z,58.36
2023-04-17T01:22:54.684Z,57.75
2023-04-17T01:23:54.696Z,57.75
2023-04-17T01:24:54.689Z,57.33
2023-04-17T01:25:54.661Z,57.33
2023-04-17T01:26:54.637Z,57.84
2023-04-17T01:27:54.637Z,57.33
2023-04-17T01:28:54.631Z,56.62
2023-04-17T01:29:54.604Z,57.03
2023-04-17T01:30:54.653Z,57.54
2023-04-17T01:31:54.589Z,57.05
2023-04-17T01:32:54.602Z,58.18
2023-04-17T01:33:54.567Z,57.15
2023-04-17T01:34:54.561Z,56.34
2023-04-17T01:35:54.533Z,55.82
2023-04-17T01:36:54.522Z,55.10
2023-04-17T01:37:54.514Z,54.59
2023-04-17T01:38:54.513Z,54.49
2023-04-17T01:39:54.497Z,54.69
2023-04-17T01:40:54.488Z,54.69
2023-04-17T01:41:54.468Z,55.00
2023-04-17T01:42:54.461Z,54.79
2023-04-17T01:43:54.459Z,54.90
2023-04-17T01:44:54.435Z,55.10
2023-04-17T01:45:54.480Z,55.41
2023-04-17T01:46:54.439Z,55.00
2023-04-17T01:47:54.437Z,55.30
2023-04-17T01:48:54.392Z,55.62
2023-04-17T01:49:54.381Z,55.92
2023-04-17T01:50:54.375Z,56.02
2023-04-17T01:51:54.357Z,57.13
2023-04-17T01:52:54.358Z,57.67
2023-04-17T01:53:54.341Z,57.95
2023-04-17T01:54:54.326Z,58.97
2023-04-17T01:55:54.315Z,58.87
2023-04-17T01:56:54.303Z,59.08
2023-04-17T01:57:54.292Z,59.48
2023-04-17T01:58:54.277Z,59.20
2023-04-17T01:59:54.271Z,58.97
2023-04-17T02:00:54.256Z,58.49
2023-04-17T02:01:54.366Z,57.87
2023-04-17T02:02:54.454Z,58.69
2023-04-17T02:03:54.538Z,57.67
2023-04-17T02:04:54.238Z,57.77
2023-04-17T02:05:54.213Z,58.07
2023-04-17T02:06:54.193Z,57.98
2023-04-17T02:07:54.185Z,57.36
2023-04-17T02:08:54.174Z,57.67
2023-04-17T02:09:54.159Z,56.13
2023-04-17T02:10:54.143Z,55.41
2023-04-17T02:11:54.137Z,55.10
2023-04-17T02:12:54.121Z,54.69
2023-04-17T02:13:54.118Z,54.28
2023-04-17T02:14:54.108Z,54.18
2023-04-17T02:15:54.166Z,54.08
2023-04-17T02:16:54.078Z,53.49
2023-04-17T02:17:54.119Z,52.76
2023-04-17T02:18:54.078Z,52.56
2023-04-17T02:19:54.044Z,52.46
2023-04-17T02:20:54.030Z,52.15
2023-04-17T02:21:54.023Z,51.95
2023-04-17T02:22:54.009Z,50.71
2023-04-17T02:23:54.001Z,50.61
2023-04-17T02:24:53.986Z,50.71
2023-04-17T02:25:53.977Z,51.23
2023-04-17T02:26:53.963Z,50.40
2023-04-17T02:27:53.956Z,49.79
2023-04-17T02:28:53.941Z,48.76
2023-04-17T02:29:53.933Z,48.66
2023-04-17T02:30:54.027Z,48.76
2023-04-17T02:31:53.967Z,47.94
2023-04-17T02:32:53.995Z,47.94
2023-04-17T02:33:53.901Z,48.35
2023-04-17T02:34:53.897Z,48.56
2023-04-17T02:35:53.877Z,49.58
2023-04-17T02:36:53.854Z,49.79
2023-04-17T02:37:53.854Z,50.10
2023-04-17T02:38:53.832Z,49.07
2023-04-17T02:39:53.897Z,49.07
2023-04-17T02:40:53.884Z,48.76
2023-04-17T02:41:53.902Z,49.58
2023-04-17T02:42:53.857Z,48.66
2023-04-17T02:43:53.882Z,48.97
2023-04-17T02:44:53.893Z,49.27
2023-04-17T02:45:53.794Z,50.20
2023-04-17T02:46:53.781Z,48.25
2023-04-17T02:47:53.786Z,48.14
2023-04-17T02:48:53.721Z,47.22
2023-04-17T02:49:53.712Z,46.91
2023-04-17T02:50:53.724Z,47.42
2023-04-17T02:51:53.688Z,47.42
2023-04-17T02:52:53.677Z,48.14
2023-04-17T02:53:53.666Z,47.84
2023-04-17T02:54:53.656Z,47.94
2023-04-17T02:55:53.670Z,48.04
2023-04-17T02:56:53.636Z,48.25
2023-04-17T02:57:53.627Z,48.46
2023-04-17T02:58:53.610Z,48.25
2023-04-17T02:59:53.618Z,48.66
2023-04-17T03:00:53.601Z,49.07
2023-04-17T03:01:53.627Z,49.58
2023-04-17T03:02:53.737Z,49.07
2023-04-17T03:03:53.807Z,49.17
2023-04-17T03:04:53.543Z,49.48
2023-04-17T03:05:53.546Z,48.76
2023-04-17T03:06:53.545Z,48.97
2023-04-17T03:07:53.532Z,48.97
2023-04-17T03:08:53.533Z,48.66
2023-04-17T03:09:53.501Z,49.17
2023-04-17T03:10:53.473Z,49.27
2023-04-17T03:11:53.465Z,48.97
2023-04-17T03:12:53.462Z,48.76
2023-04-17T03:13:53.444Z,48.38
2023-04-17T03:14:53.434Z,47.84
2023-04-17T03:15:53.427Z,47.74
2023-04-17T03:16:53.522Z,47.66
2023-04-17T03:17:53.451Z,47.24
2023-04-17T03:18:53.390Z,47.24
2023-04-17T03:19:53.376Z,45.81
2023-04-17T03:20:53.364Z,45.19
2023-04-17T03:21:53.355Z,44.57
2023-04-17T03:22:53.364Z,44.37
2023-04-17T03:23:53.331Z,44.68
2023-04-17T03:24:53.325Z,44.17
2023-04-17T03:25:53.313Z,44.98
2023-04-17T03:26:53.298Z,44.68
2023-04-17T03:27:53.304Z,45.19
2023-04-17T03:28:53.276Z,43.24
2023-04-17T03:29:53.266Z,42.93
2023-04-17T03:30:53.254Z,42.42
2023-04-17T03:31:53.301Z,43.55
2023-04-17T03:32:53.338Z,41.20
2023-04-17T03:33:53.229Z,40.57
2023-04-17T03:34:53.219Z,40.16
2023-04-17T03:35:53.200Z,41.08
2023-04-17T03:36:53.204Z,40.36
2023-04-17T03:37:53.178Z,40.57
2023-04-17T03:38:53.187Z,40.17
2023-04-17T03:39:53.160Z,39.54
2023-04-17T03:40:53.154Z,39.13
2023-04-17T03:41:53.134Z,39.04
2023-04-17T03:42:53.120Z,38.84
2023-04-17T03:43:53.122Z,38.94
2023-04-17T03:44:53.111Z,38.43
2023-04-17T03:45:53.113Z,38.43
2023-04-17T03:46:53.080Z,37.71
2023-04-17T03:47:53.103Z,37.30
2023-04-17T03:48:53.057Z,37.71
2023-04-17T03:49:53.049Z,36.58
2023-04-17T03:50:53.034Z,35.75
2023-04-17T03:51:53.026Z,35.04
2023-04-17T03:52:53.021Z,33.70
2023-04-17T03:53:53.010Z,34.32
2023-04-17T03:54:53.123Z,34.11
2023-04-17T03:55:52.976Z,34.73
2023-04-17T03:56:52.965Z,35.66
2023-04-17T03:57:52.956Z,35.35
2023-04-17T03:58:52.946Z,36.68
2023-04-17T03:59:52.934Z,36.27
2023-04-17T04:00:52.939Z,37.52
2023-04-17T04:01:52.969Z,38.34
2023-04-17T04:02:53.005Z,35.88
2023-04-17T04:03:53.138Z,35.16
2023-04-17T04:04:52.975Z,35.16
2023-04-17T04:05:52.867Z,37.52
2023-04-17T04:06:52.850Z,34.44
2023-04-17T04:07:52.840Z,32.48
2023-04-17T04:08:52.834Z,30.43
2023-04-17T04:09:52.821Z,30.53
2023-04-17T04:10:52.889Z,29.50
2023-04-17T04:11:52.798Z,28.68
2023-04-17T04:12:52.787Z,27.86
2023-04-17T04:13:52.777Z,27.84
2023-04-17T04:14:52.771Z,28.67
2023-04-17T04:15:52.891Z,27.74
2023-04-17T04:16:52.749Z,27.23
2023-04-17T04:17:52.776Z,26.61
2023-04-17T04:18:52.717Z,26.61
2023-04-17T04:19:52.735Z,26.61
2023-04-17T04:20:52.697Z,26.92
2023-04-17T04:21:52.685Z,27.74
2023-04-17T04:22:52.678Z,30.82
2023-04-17T04:23:52.672Z,29.39
2023-04-17T04:24:52.663Z,30.12
2023-04-17T04:25:52.657Z,30.02
2023-04-17T04:26:52.671Z,30.63
2023-04-17T04:27:52.643Z,30.63
2023-04-17T04:28:52.632Z,29.91
2023-04-17T04:29:52.599Z,29.81
2023-04-17T04:30:52.586Z,30.02
2023-04-17T04:31:52.765Z,30.74
2023-04-17T04:32:52.683Z,29.40
2023-04-17T04:33:52.556Z,29.09
2023-04-17T04:34:52.542Z,29.09
2023-04-17T04:35:52.540Z,27.75
2023-04-17T04:36:52.518Z,26.73
2023-04-17T04:37:52.510Z,26.40
2023-04-17T04:38:52.503Z,26.40
2023-04-17T04:39:52.543Z,26.82
2023-04-17T04:40:52.744Z,27.02
2023-04-17T04:41:52.480Z,26.82
2023-04-17T04:42:52.479Z,26.10
2023-04-17T04:43:52.450Z,25.99
2023-04-17T04:44:52.433Z,26.20
2023-04-17T04:45:52.425Z,26.72
2023-04-17T04:46:52.460Z,27.95
2023-04-17T04:47:52.434Z,27.84
2023-04-17T04:48:52.393Z,28.36
2023-04-17T04:49:52.378Z,29.18
2023-04-17T04:50:52.368Z,29.39
2023-04-17T04:51:52.368Z,30.00
2023-04-17T04:52:52.347Z,30.71
2023-04-17T04:53:52.338Z,31.12
2023-04-17T04:54:52.327Z,31.84
2023-04-17T04:55:52.315Z,32.56
2023-04-17T04:56:52.386Z,33.48
2023-04-17T04:57:52.296Z,34.20
2023-04-17T04:58:52.302Z,34.09
2023-04-17T04:59:52.278Z,34.41
2023-04-17T05:00:52.301Z,34.81
2023-04-17T05:01:52.294Z,35.33
2023-04-17T05:02:52.370Z,35.53
2023-04-17T05:03:52.404Z,35.94
2023-04-17T05:04:52.257Z,35.94
2023-04-17T05:05:52.216Z,36.36
2023-04-17T05:06:52.208Z,36.05
2023-04-17T05:07:52.186Z,36.05
2023-04-17T05:08:52.172Z,36.36
2023-04-17T05:09:52.166Z,37.07
2023-04-17T05:10:52.152Z,36.36
2023-04-17T05:11:52.140Z,36.77
2023-04-17T05:12:52.128Z,37.59
2023-04-17T05:13:52.139Z,37.49
2023-04-17T05:14:52.141Z,37.18
2023-04-17T05:15:52.135Z,37.59
2023-04-17T05:16:52.130Z,37.79
2023-04-17T05:17:52.111Z,38.21
2023-04-17T05:18:52.067Z,38.41
2023-04-17T05:19:52.057Z,38.70
2023-04-17T05:20:52.046Z,38.70
2023-04-17T05:21:52.032Z,39.42
2023-04-17T05:22:52.017Z,40.24
2023-04-17T05:23:52.016Z,40.65
2023-04-17T05:24:52.002Z,41.16
2023-04-17T05:25:51.981Z,42.09
2023-04-17T05:26:51.979Z,42.50
2023-04-17T05:27:51.963Z,43.12
2023-04-17T05:28:51.979Z,43.73
2023-04-17T05:29:51.944Z,44.24
2023-04-17T05:30:51.958Z,45.25
2023-04-17T05:31:51.955Z,46.28
2023-04-17T05:32:52.048Z,46.17
2023-04-17T05:33:51.910Z,47.00
2023-04-17T05:34:51.888Z,47.20
2023-04-17T05:35:53.956Z,47.00
2023-04-17T05:36:51.865Z,46.89
2023-04-17T05:37:51.855Z,48.13
2023-04-17T05:38:51.860Z,48.43
2023-04-17T05:39:51.825Z,48.84
2023-04-17T05:40:51.821Z,49.56
2023-04-17T05:41:51.836Z,49.46
2023-04-17T05:42:51.800Z,49.66
2023-04-17T05:43:51.781Z,50.15
2023-04-17T05:44:51.785Z,50.97
2023-04-17T05:45:51.833Z,52.10
2023-04-17T05:46:51.773Z,52.41
2023-04-17T05:47:51.785Z,52.41
2023-04-17T05:48:51.735Z,52.92
2023-04-17T05:49:51.724Z,54.36
2023-04-17T05:50:51.704Z,54.87
2023-04-17T05:51:51.736Z,55.79
2023-04-17T05:52:51.682Z,58.36
2023-04-17T05:53:51.674Z,58.26
2023-04-17T05:54:51.662Z,59.15
2023-04-17T05:55:51.654Z,58.84
2023-04-17T05:56:51.640Z,60.58
2023-04-17T05:57:51.635Z,61.20
2023-04-17T05:58:51.617Z,61.41
2023-04-17T05:59:51.604Z,61.20
2023-04-17T06:00:51.623Z,62.30
2023-04-17T06:01:51.700Z,63.12
2023-04-17T06:02:51.916Z,63.43
2023-04-17T06:03:51.771Z,64.76
2023-04-17T06:04:51.676Z,66.09
2023-04-17T06:05:51.616Z,65.78
2023-04-17T06:06:51.533Z,67.22
2023-04-17T06:07:51.523Z,67.22
2023-04-17T06:08:51.510Z,67.52
2023-04-17T06:09:51.502Z,68.86
2023-04-17T06:10:51.488Z,68.76
2023-04-17T06:11:51.478Z,70.50
2023-04-17T06:12:51.464Z,71.08
2023-04-17T06:13:51.464Z,71.69
2023-04-17T06:14:51.449Z,71.39
2023-04-17T06:15:51.448Z,72.41
2023-04-17T06:16:51.469Z,72.52
2023-04-17T06:17:51.458Z,73.03
2023-04-17T06:18:51.438Z,73.74
2023-04-17T06:19:51.388Z,74.11
2023-04-17T06:20:51.374Z,75.35
2023-04-17T06:21:51.369Z,76.88
2023-04-17T06:22:51.355Z,76.78
2023-04-17T06:23:51.388Z,77.39
2023-04-17T06:24:51.338Z,78.01
2023-04-17T06:25:51.317Z,78.21
2023-04-17T06:26:51.310Z,77.36
2023-04-17T06:27:51.312Z,79.20
2023-04-17T06:28:51.285Z,79.91
2023-04-17T06:29:51.276Z,80.43
2023-04-17T06:30:51.307Z,81.10
2023-04-17T06:31:51.269Z,80.60
2023-04-17T06:32:51.278Z,82.75
2023-04-17T06:33:51.235Z,83.66
2023-04-17T06:34:59.128Z,83.66
2023-04-17T06:35:52.243Z,85.50
2023-04-17T06:36:51.203Z,86.79
2023-04-17T06:37:51.191Z,87.41
2023-04-17T06:38:51.183Z,87.51
2023-04-17T06:39:51.166Z,88.02
2023-04-17T06:40:52.728Z,89.45
2023-04-17T06:41:51.145Z,90.02
2023-04-17T06:42:51.136Z,90.12
2023-04-17T06:43:51.123Z,90.43
2023-04-17T06:44:51.126Z,91.86
2023-04-17T06:45:51.207Z,93.80
2023-04-17T06:46:51.181Z,93.70
2023-04-17T06:47:51.123Z,93.55
2023-04-17T06:48:51.070Z,94.68
2023-04-17T06:49:51.061Z,94.53
2023-04-17T06:50:51.067Z,97.29
2023-04-17T06:51:51.033Z,96.17
2023-04-17T06:52:51.021Z,96.17
2023-04-17T06:53:51.012Z,96.78
2023-04-17T06:54:50.997Z,97.86
2023-04-17T06:55:50.990Z,99.39
2023-04-17T06:56:50.994Z,99.84
2023-04-17T06:57:50.998Z,98.68
2023-04-17T06:58:50.959Z,98.16
2023-04-17T06:59:50.950Z,97.75
2023-04-17T07:00:50.951Z,99.99
2023-04-17T07:01:51.087Z,99.99
2023-04-17T07:02:50.979Z,98.47
2023-04-17T07:03:51.043Z,99.99
2023-04-17T07:04:50.952Z,99.99
2023-04-17T07:05:50.890Z,99.99
2023-04-17T07:06:50.891Z,99.99
2023-04-17T07:07:50.886Z,99.99
2023-04-17T07:08:51.297Z,99.99
2023-04-17T07:09:50.832Z,99.99
2023-04-17T07:10:50.835Z,99.99
2023-04-17T07:11:50.819Z,99.99
2023-04-17T07:12:50.799Z,99.99
2023-04-17T07:13:50.787Z,99.99
2023-04-17T07:14:50.778Z,99.99
2023-04-17T07:15:50.927Z,99.99
2023-04-17T07:16:50.892Z,99.99
2023-04-17T07:17:50.762Z,99.99
2023-04-17T07:18:50.748Z,99.99
2023-04-17T07:19:50.746Z,99.99
2023-04-17T07:20:50.724Z,99.99
2023-04-17T07:21:50.697Z,99.99
2023-04-17T07:22:50.711Z,99.99
2023-04-17T07:23:50.675Z,99.99
2023-04-17T07:24:50.666Z,99.99
2023-04-17T07:25:50.655Z,99.99
2023-04-17T07:26:50.644Z,99.99
2023-04-17T07:27:50.628Z,99.99
2023-04-17T07:28:50.628Z,99.99
2023-04-17T07:29:50.612Z,99.99
2023-04-17T07:30:50.609Z,99.99
2023-04-17T07:31:50.633Z,99.99
2023-04-17T07:32:50.624Z,99.99
2023-04-17T07:33:50.575Z,99.99
2023-04-17T07:34:50.556Z,99.99
2023-04-17T07:35:50.554Z,99.99
2023-04-17T07:36:50.540Z,99.99
2023-04-17T07:37:50.526Z,99.99
2023-04-17T07:38:50.536Z,99.99
2023-04-17T07:39:50.529Z,99.99
2023-04-17T07:40:50.496Z,99.99
2023-04-17T07:41:50.492Z,99.99
2023-04-17T07:42:50.467Z,99.99
2023-04-17T07:43:50.454Z,99.99
2023-04-17T07:44:50.441Z,99.99
2023-04-17T07:45:50.434Z,99.99
2023-04-17T07:46:50.510Z,99.99
2023-04-17T07:47:50.487Z,99.99
2023-04-17T07:48:50.437Z,99.99
2023-04-17T07:49:50.410Z,99.99
2023-04-17T07:50:50.395Z,99.99
2023-04-17T07:51:50.378Z,99.99
2023-04-17T07:52:50.387Z,99.99
2023-04-17T07:53:50.347Z,99.99
2023-04-17T07:54:50.391Z,99.99
2023-04-17T07:55:50.321Z,99.99
2023-04-17T07:56:50.420Z,99.99
2023-04-17T07:57:50.299Z,99.99
2023-04-17T07:58:50.290Z,99.99
2023-04-17T07:59:50.278Z,99.99
2023-04-17T08:00:50.269Z,99.99
2023-04-17T08:01:50.308Z,97.28
2023-04-17T08:02:50.384Z,88.96
2023-04-17T08:03:50.414Z,90.92
2023-04-17T08:04:50.264Z,89.71
2023-04-17T08:05:50.216Z,91.02
2023-04-17T08:06:50.202Z,90.62
2023-04-17T08:07:50.193Z,91.18
2023-04-17T08:08:50.178Z,88.16
2023-04-17T08:09:50.171Z,87.57
2023-04-17T08:10:50.222Z,88.28
2023-04-17T08:11:57.022Z,87.73
2023-04-17T08:12:50.140Z,83.31
2023-04-17T08:13:50.123Z,83.45
2023-04-17T08:14:50.147Z,84.43
2023-04-17T08:15:50.117Z,86.95
2023-04-17T08:16:50.127Z,89.97
2023-04-17T08:17:50.147Z,88.16
2023-04-17T08:18:50.074Z,85.84
2023-04-17T08:19:50.063Z,86.04
2023-04-17T08:20:50.053Z,88.16
2023-04-17T08:21:50.051Z,84.94
2023-04-17T08:22:50.033Z,86.61
2023-04-17T08:23:50.034Z,86.00
2023-04-17T08:24:50.012Z,83.00
2023-04-17T08:25:50.022Z,82.82
2023-04-17T08:26:50.077Z,81.32
2023-04-17T08:27:49.976Z,80.51
2023-04-17T08:28:49.974Z,80.95
2023-04-17T08:29:49.958Z,81.32
2023-04-17T08:30:49.979Z,81.32
2023-04-17T08:31:53.366Z,82.76
2023-04-17T08:32:49.992Z,82.36
2023-04-17T08:33:51.306Z,80.01
2023-04-17T08:34:49.902Z,80.01
2023-04-17T08:35:49.890Z,80.37
2023-04-17T08:36:49.887Z,78.42
2023-04-17T08:37:49.874Z,78.27
2023-04-17T08:38:49.877Z,79.14
2023-04-17T08:39:49.867Z,78.84
2023-04-17T08:40:49.846Z,77.90
2023-04-17T08:41:49.828Z,75.99
2023-04-17T08:42:49.844Z,76.86
2023-04-17T08:43:49.811Z,72.94
2023-04-17T08:44:49.803Z,71.53
2023-04-17T08:45:49.830Z,73.77
2023-04-17T08:46:49.791Z,69.49
2023-04-17T08:47:49.791Z,68.49
2023-04-17T08:48:51.683Z,68.79
2023-04-17T08:49:49.748Z,67.95
2023-04-17T08:50:49.774Z,67.82
2023-04-17T08:51:49.732Z,69.39
2023-04-17T08:52:49.852Z,69.35
2023-04-17T08:53:49.705Z,68.99
2023-04-17T08:54:51.346Z,69.06
2023-04-17T08:55:49.677Z,66.55
2023-04-17T08:56:49.672Z,65.35
2023-04-17T08:57:49.678Z,64.98
2023-04-17T08:58:49.678Z,67.11
2023-04-17T08:59:49.636Z,64.87
2023-04-17T09:00:49.630Z,65.33
2023-04-17T09:01:49.663Z,67.91
2023-04-17T09:02:49.716Z,68.55
2023-04-17T09:03:49.867Z,66.67
2023-04-17T09:04:49.735Z,67.38
2023-04-17T09:05:49.574Z,67.55
2023-04-17T09:06:49.565Z,67.22
2023-04-17T09:07:51.687Z,67.88
2023-04-17T09:08:49.545Z,67.05
2023-04-17T09:09:49.547Z,66.72
2023-04-17T09:10:49.552Z,65.75
2023-04-17T09:11:49.512Z,65.92
2023-04-17T09:12:49.504Z,64.34
2023-04-17T09:13:49.508Z,67.65
2023-04-17T09:14:49.510Z,64.92
2023-04-17T09:15:49.618Z,66.22
2023-04-17T09:16:49.459Z,66.41
2023-04-17T09:17:49.497Z,65.68
2023-04-17T09:18:49.521Z,68.05
2023-04-17T09:19:49.433Z,65.09
2023-04-17T09:20:49.426Z,64.06
2023-04-17T09:21:49.413Z,62.92
2023-04-17T09:22:49.395Z,64.26
2023-04-17T09:23:49.393Z,63.92
2023-04-17T09:24:49.408Z,64.25
2023-04-17T09:25:49.399Z,64.06
2023-04-17T09:26:49.356Z,63.12
2023-04-17T09:27:49.352Z,64.19
2023-04-17T09:28:49.346Z,62.29
2023-04-17T09:29:49.318Z,61.87
2023-04-17T09:30:49.336Z,59.14
2023-04-17T09:31:49.411Z,59.83
2023-04-17T09:32:49.428Z,59.91
2023-04-17T09:33:49.292Z,60.78
2023-04-17T09:34:49.280Z,58.36
2023-04-17T09:35:49.279Z,57.91
2023-04-17T09:36:49.269Z,58.64
2023-04-17T09:37:49.252Z,57.44
2023-04-17T09:38:49.230Z,58.47
2023-04-17T09:39:49.223Z,58.26
2023-04-17T09:40:49.214Z,57.64
2023-04-17T09:41:49.204Z,57.91
2023-04-17T09:42:49.189Z,57.91
2023-04-17T09:43:49.182Z,56.71
2023-04-17T09:44:49.176Z,57.01
2023-04-17T09:45:49.169Z,55.77
2023-04-17T09:46:49.422Z,55.77
2023-04-17T09:47:49.348Z,57.26
2023-04-17T09:48:49.253Z,55.47
2023-04-17T09:49:49.205Z,55.40
2023-04-17T09:50:49.313Z,56.49
2023-04-17T09:51:49.283Z,58.15
2023-04-17T09:52:49.136Z,56.82
2023-04-17T09:53:49.083Z,59.30
2023-04-17T09:54:49.069Z,56.84
2023-04-17T09:55:49.069Z,55.81
2023-04-17T09:56:49.044Z,56.18
2023-04-17T09:57:49.062Z,56.01
2023-04-17T09:58:49.061Z,57.64
2023-04-17T09:59:49.122Z,58.61
2023-04-17T10:00:49.078Z,59.06
2023-04-17T10:01:49.036Z,56.94
2023-04-17T10:02:49.166Z,56.71
2023-04-17T10:03:49.096Z,55.39
2023-04-17T10:04:48.956Z,56.48
2023-04-17T10:05:48.949Z,54.59
2023-04-17T10:06:48.931Z,54.74
2023-04-17T10:07:48.940Z,53.94
2023-04-17T10:08:48.915Z,54.59
2023-04-17T10:09:49.077Z,53.81
2023-04-17T10:10:48.933Z,56.38
2023-04-17T10:11:48.884Z,54.11
2023-04-17T10:12:48.877Z,56.64
2023-04-17T10:13:48.866Z,58.26
2023-04-17T10:14:48.865Z,55.66
2023-04-17T10:15:48.846Z,57.71
2023-04-17T10:16:48.902Z,55.46
2023-04-17T10:17:48.826Z,57.18
2023-04-17T10:18:48.830Z,57.58
2023-04-17T10:19:48.799Z,56.18
2023-04-17T10:20:48.804Z,58.34
2023-04-17T10:21:48.777Z,60.29
2023-04-17T10:22:48.804Z,59.35
2023-04-17T10:23:48.754Z,59.59
2023-04-17T10:24:48.748Z,58.04
2023-04-17T10:25:48.739Z,58.75
2023-04-17T10:26:48.724Z,58.25
2023-04-17T10:27:48.720Z,56.85
2023-04-17T10:28:48.709Z,56.13
2023-04-17T10:29:48.948Z,56.23
2023-04-17T10:30:48.682Z,56.06
2023-04-17T10:31:48.818Z,56.33
2023-04-17T10:32:48.701Z,55.19
2023-04-17T10:33:48.652Z,56.09
2023-04-17T10:34:48.666Z,57.15
2023-04-17T10:35:48.662Z,55.99
2023-04-17T10:36:48.621Z,56.29
2023-04-17T10:37:48.628Z,56.41
2023-04-17T10:38:48.599Z,56.77
2023-04-17T10:39:48.736Z,59.74
2023-04-17T10:40:48.589Z,56.71
2023-04-17T10:41:48.566Z,56.61
2023-04-17T10:42:48.553Z,57.31
2023-04-17T10:43:48.547Z,58.45
2023-04-17T10:44:48.540Z,56.66
2023-04-17T10:45:48.574Z,59.22
2023-04-17T10:46:48.514Z,57.10
2023-04-17T10:47:48.701Z,59.18
2023-04-17T10:48:48.535Z,56.85
2023-04-17T10:49:48.690Z,57.37
2023-04-17T10:50:48.497Z,53.91
2023-04-17T10:51:48.464Z,54.16
2023-04-17T10:52:48.452Z,54.96
2023-04-17T10:53:48.448Z,53.66
2023-04-17T10:54:48.429Z,55.08
2023-04-17T10:55:48.464Z,55.93
2023-04-17T10:56:48.685Z,53.36
2023-04-17T10:57:48.400Z,57.17
2023-04-17T10:58:48.450Z,54.61
2023-04-17T10:59:48.609Z,56.51
2023-04-17T11:00:48.371Z,56.64
2023-04-17T11:01:48.420Z,58.37
2023-04-17T11:02:48.460Z,58.19
2023-04-17T11:03:48.337Z,56.68
2023-04-17T11:04:48.384Z,55.88
2023-04-17T11:05:48.392Z,54.13
2023-04-17T11:06:48.402Z,52.39
2023-04-17T11:07:48.419Z,53.81
2023-04-17T11:08:48.305Z,52.59
2023-04-17T11:09:48.294Z,52.94
2023-04-17T11:10:48.634Z,53.34
2023-04-17T11:11:48.287Z,52.79
2023-04-17T11:12:48.274Z,52.64
2023-04-17T11:13:48.439Z,49.66
2023-04-17T11:14:48.255Z,50.23
2023-04-17T11:15:48.296Z,50.68
2023-04-17T11:16:48.541Z,51.10
2023-04-17T11:17:48.549Z,51.75
2023-04-17T11:18:48.475Z,48.35
2023-04-17T11:19:48.476Z,48.20
2023-04-17T11:20:48.191Z,47.90
2023-04-17T11:21:48.171Z,49.09
2023-04-17T11:22:48.179Z,50.13
2023-04-17T11:23:48.134Z,48.77
2023-04-17T11:24:48.140Z,48.57
2023-04-17T11:25:48.118Z,50.52
2023-04-17T11:26:48.101Z,50.05
2023-04-17T11:27:48.106Z,50.55
2023-04-17T11:28:48.084Z,50.90
2023-04-17T11:29:48.070Z,52.02
2023-04-17T11:30:48.097Z,53.42
2023-04-17T11:31:48.152Z,54.32
2023-04-17T11:32:48.084Z,54.44
2023-04-17T11:33:48.029Z,55.46
2023-04-17T11:34:48.022Z,53.64
2023-04-17T11:35:48.013Z,50.25
2023-04-17T11:36:47.998Z,49.13
2023-04-17T11:37:47.990Z,49.78
2023-04-17T11:38:48.001Z,49.26
2023-04-17T11:39:48.003Z,50.77
2023-04-17T11:40:47.998Z,52.97
2023-04-17T11:41:47.966Z,53.89
2023-04-17T11:42:47.934Z,52.74
2023-04-17T11:43:47.956Z,55.08
2023-04-17T11:44:47.914Z,53.77
2023-04-17T11:45:47.928Z,54.79
2023-04-17T11:46:48.074Z,52.25
2023-04-17T11:47:47.929Z,52.04
2023-04-17T11:48:47.872Z,51.00
2023-04-17T11:49:47.869Z,50.80
2023-04-17T11:50:47.880Z,48.07
2023-04-17T11:51:47.852Z,47.45
2023-04-17T11:52:47.895Z,46.76
2023-04-17T11:53:47.837Z,48.25
2023-04-17T11:54:47.832Z,47.67
2023-04-17T11:55:47.809Z,47.05
2023-04-17T11:56:47.853Z,47.16
2023-04-17T11:57:47.782Z,46.56
2023-04-17T11:58:47.772Z,46.53
2023-04-17T11:59:47.758Z,48.05
2023-04-17T12:00:47.772Z,49.77
2023-04-17T12:01:47.762Z,51.74
2023-04-17T12:02:48.080Z,54.55
2023-04-17T12:03:47.915Z,54.12
2023-04-17T12:04:47.813Z,51.89
2023-04-17T12:05:47.799Z,49.70
2023-04-17T12:06:47.689Z,48.22
2023-04-17T12:07:47.684Z,45.41
2023-04-17T12:08:47.671Z,48.54
2023-04-17T12:09:47.656Z,47.22
2023-04-17T12:10:47.670Z,48.05
2023-04-17T12:11:47.673Z,45.31
2023-04-17T12:12:47.623Z,47.20
2023-04-17T12:13:47.618Z,47.37
2023-04-17T12:14:47.612Z,48.85
2023-04-17T12:15:47.668Z,47.53
2023-04-17T12:16:47.766Z,47.20
2023-04-17T12:17:47.607Z,48.07
2023-04-17T12:18:47.582Z,50.92
2023-04-17T12:19:47.552Z,50.34
2023-04-17T12:20:47.552Z,51.37
2023-04-17T12:21:47.554Z,52.47
2023-04-17T12:22:47.527Z,52.34
2023-04-17T12:23:47.510Z,51.04
2023-04-17T12:24:47.498Z,51.27
2023-04-17T12:25:47.500Z,52.84
2023-04-17T12:26:47.503Z,52.37
2023-04-17T12:27:49.269Z,51.59
2023-04-17T12:28:47.453Z,51.82
2023-04-17T12:29:47.444Z,52.19
2023-04-17T12:30:47.474Z,52.19
2023-04-17T12:31:47.467Z,52.92
2023-04-17T12:32:47.433Z,53.02
2023-04-17T12:33:47.406Z,53.67
2023-04-17T12:34:47.421Z,54.02
2023-04-17T12:35:47.424Z,54.82
2023-04-17T12:36:47.369Z,56.63
2023-04-17T12:37:47.360Z,55.52
2023-04-17T12:38:47.359Z,56.93
2023-04-17T12:39:47.342Z,55.95
2023-04-17T12:40:47.325Z,55.65
2023-04-17T12:41:47.317Z,57.35
2023-04-17T12:42:49.531Z,57.48
2023-04-17T12:43:47.308Z,58.69
2023-04-17T12:44:47.307Z,58.64
2023-04-17T12:45:47.312Z,57.44
2023-04-17T12:46:47.269Z,54.83
2023-04-17T12:47:47.342Z,56.23
2023-04-17T12:48:47.243Z,56.54
2023-04-17T12:49:47.231Z,56.30
2023-04-17T12:50:47.218Z,54.00
2023-04-17T12:51:47.212Z,54.97
2023-04-17T12:52:47.203Z,51.62